createdAt,value
2018-01-21T00:00:36.002Z,100.00
2018-01-21T00:01:41.150Z,100.00
2018-01-21T00:02:47.506Z,100.00
2018-01-21T00:03:52.535Z,100.00
2018-01-21T00:04:57.885Z,100.00
2018-01-21T00:06:02.911Z,100.00
2018-01-21T00:07:08.355Z,100.00
2018-01-21T00:08:13.419Z,100.00
2018-01-21T00:09:18.621Z,100.00
2018-01-21T00:10:23.413Z,100.00
2018-01-21T00:11:28.280Z,100.00
2018-01-21T00:12:33.101Z,100.00
2018-01-21T00:13:37.887Z,100.00
2018-01-21T00:14:43.079Z,100.00
2018-01-21T00:15:49.440Z,100.00
2018-01-21T00:16:54.206Z,100.00
2018-01-21T00:17:59.183Z,100.00
2018-01-21T00:19:04.135Z,100.00
2018-01-21T00:20:08.946Z,100.00
2018-01-21T00:21:14.115Z,100.00
2018-01-21T00:22:23.055Z,100.00
2018-01-21T00:23:27.801Z,100.00
2018-01-21T00:24:32.521Z,100.00
2018-01-21T00:25:37.103Z,100.00
2018-01-21T00:26:41.702Z,100.00
2018-01-21T00:27:46.782Z,100.00
2018-01-21T00:28:51.437Z,100.00
2018-01-21T00:29:56.201Z,100.00
2018-01-21T00:31:01.021Z,100.00
2018-01-21T00:32:05.769Z,100.00
2018-01-21T00:33:10.554Z,100.00
2018-01-21T00:34:15.599Z,100.00
2018-01-21T00:35:20.502Z,100.00
2018-01-21T00:36:25.372Z,100.00
2018-01-21T00:37:30.133Z,100.00
2018-01-21T00:38:34.878Z,100.00
2018-01-21T00:39:39.686Z,100.00
2018-01-21T00:40:44.781Z,100.00
2018-01-21T00:41:49.608Z,100.00
2018-01-21T00:42:54.405Z,100.00
2018-01-21T00:43:59.172Z,100.00
2018-01-21T00:45:03.994Z,100.00
2018-01-21T00:46:08.877Z,100.00
2018-01-21T00:47:13.757Z,100.00
2018-01-21T00:48:18.491Z,100.00
2018-01-21T00:49:23.217Z,100.00
2018-01-21T00:50:27.910Z,100.00
2018-01-21T00:51:32.639Z,100.00
2018-01-21T00:52:37.596Z,100.00
2018-01-21T00:53:42.579Z,100.00
2018-01-21T00:54:47.242Z,100.00
2018-01-21T00:55:51.958Z,100.00
2018-01-21T00:56:56.730Z,100.00
2018-01-21T00:58:01.516Z,100.00
2018-01-21T00:59:06.312Z,100.00
2018-01-21T01:00:11.445Z,100.00
2018-01-21T01:01:16.177Z,100.00
2018-01-21T01:02:20.960Z,100.00
2018-01-21T01:03:25.736Z,100.00
2018-01-21T01:04:30.566Z,100.00
2018-01-21T01:05:35.330Z,100.00
2018-01-21T01:06:40.440Z,100.00
2018-01-21T01:07:45.222Z,100.00
2018-01-21T01:08:50.038Z,100.00
2018-01-21T01:09:54.833Z,100.00
2018-01-21T01:10:59.619Z,100.00
2018-01-21T01:12:04.304Z,100.00
2018-01-21T01:13:09.301Z,100.00
2018-01-21T01:14:14.029Z,100.00
2018-01-21T01:15:18.775Z,100.00
2018-01-21T01:16:23.511Z,100.00
2018-01-21T01:17:28.250Z,100.00
2018-01-21T01:18:32.974Z,100.00
2018-01-21T01:19:37.926Z,100.00
2018-01-21T01:20:42.629Z,100.00
2018-01-21T01:21:47.358Z,100.00
2018-01-21T01:22:52.035Z,100.00
2018-01-21T01:23:56.717Z,100.00
2018-01-21T01:25:01.403Z,100.00
2018-01-21T01:26:06.391Z,100.00
2018-01-21T01:27:11.068Z,100.00
2018-01-21T01:28:15.761Z,100.00
2018-01-21T01:29:20.475Z,100.00
2018-01-21T01:30:25.161Z,100.00
2018-01-21T01:31:29.840Z,100.00
2018-01-21T01:32:34.836Z,100.00
2018-01-21T01:33:39.523Z,100.00
2018-01-21T01:34:44.215Z,100.00
2018-01-21T01:35:48.902Z,100.00
2018-01-21T01:36:53.570Z,100.00
2018-01-21T01:37:58.199Z,100.00
2018-01-21T01:39:03.173Z,100.00
2018-01-21T01:40:07.881Z,100.00
2018-01-21T01:41:12.554Z,100.00
2018-01-21T01:42:17.264Z,100.00
2018-01-21T01:43:21.991Z,100.00
2018-01-21T01:44:26.755Z,100.00
2018-01-21T01:45:31.775Z,100.00
2018-01-21T01:46:36.551Z,100.00
2018-01-21T01:47:41.387Z,100.00
2018-01-21T01:48:50.409Z,100.00
2018-01-21T01:49:55.145Z,100.00
2018-01-21T01:50:59.971Z,100.00
2018-01-21T01:52:04.965Z,100.00
2018-01-21T01:53:09.726Z,100.00
2018-01-21T01:54:14.462Z,100.00
2018-01-21T01:55:19.128Z,100.00
2018-01-21T01:56:23.801Z,100.00
2018-01-21T01:57:28.488Z,100.00
2018-01-21T01:58:33.451Z,100.00
2018-01-21T01:59:38.202Z,100.00
2018-01-21T02:00:42.990Z,100.00
2018-01-21T02:01:47.722Z,100.00
2018-01-21T02:02:52.525Z,100.00
2018-01-21T02:03:57.260Z,100.00
2018-01-21T02:05:02.390Z,100.00
2018-01-21T02:06:07.108Z,100.00
2018-01-21T02:07:11.892Z,100.00
2018-01-21T02:08:16.648Z,100.00
2018-01-21T02:09:21.415Z,100.00
2018-01-21T02:10:26.200Z,100.00
2018-01-21T02:11:31.212Z,100.00
2018-01-21T02:12:35.972Z,100.00
2018-01-21T02:13:40.787Z,100.00
2018-01-21T02:14:45.519Z,100.00
2018-01-21T02:15:50.291Z,100.00
2018-01-21T02:16:54.982Z,100.00
2018-01-21T02:18:00.002Z,100.00
2018-01-21T02:19:04.729Z,100.00
2018-01-21T02:20:09.472Z,100.00
2018-01-21T02:21:14.219Z,100.00
2018-01-21T02:22:18.982Z,100.00
2018-01-21T02:23:23.681Z,100.00
2018-01-21T02:24:28.760Z,100.00
2018-01-21T02:25:33.465Z,100.00
2018-01-21T02:26:38.200Z,100.00
2018-01-21T02:27:42.960Z,100.00
2018-01-21T02:28:47.683Z,100.00
2018-01-21T02:29:52.498Z,100.00
2018-01-21T02:30:57.550Z,100.00
2018-01-21T02:32:02.293Z,100.00
2018-01-21T02:33:07.071Z,100.00
2018-01-21T02:34:11.797Z,100.00
2018-01-21T02:35:16.551Z,100.00
2018-01-21T02:36:21.278Z,100.00
2018-01-21T02:37:26.300Z,100.00
2018-01-21T02:38:31.064Z,100.00
2018-01-21T02:39:35.815Z,100.00
2018-01-21T02:40:40.530Z,100.00
2018-01-21T02:41:45.199Z,100.00
2018-01-21T02:42:50.091Z,100.00
2018-01-21T02:43:55.078Z,100.00
2018-01-21T02:44:59.742Z,100.00
2018-01-21T02:46:04.385Z,100.00
2018-01-21T02:47:09.006Z,100.00
2018-01-21T02:48:13.625Z,100.00
2018-01-21T02:49:18.236Z,100.00
2018-01-21T02:50:23.497Z,100.00
2018-01-21T02:51:28.132Z,100.00
2018-01-21T02:52:32.755Z,100.00
2018-01-21T02:53:37.420Z,100.00
2018-01-21T02:54:42.057Z,100.00
2018-01-21T02:55:46.533Z,100.00
2018-01-21T02:56:51.315Z,100.00
2018-01-21T02:57:55.769Z,100.00
2018-01-21T02:59:00.242Z,100.00
2018-01-21T03:00:04.743Z,100.00
2018-01-21T03:01:09.252Z,100.00
2018-01-21T03:02:13.724Z,100.00
2018-01-21T03:03:18.505Z,100.00
2018-01-21T03:04:23.001Z,100.00
2018-01-21T03:05:27.775Z,100.00
2018-01-21T03:06:32.601Z,100.00
2018-01-21T03:07:37.330Z,100.00
2018-01-21T03:08:42.065Z,100.00
2018-01-21T03:09:47.090Z,100.00
2018-01-21T03:10:51.886Z,100.00
2018-01-21T03:11:56.538Z,100.00
2018-01-21T03:13:01.182Z,100.00
2018-01-21T03:14:06.054Z,100.00
2018-01-21T03:15:10.827Z,100.00
2018-01-21T03:16:15.907Z,100.00
2018-01-21T03:17:20.666Z,100.00
2018-01-21T03:18:25.402Z,100.00
2018-01-21T03:19:30.187Z,100.00
2018-01-21T03:20:34.956Z,100.00
2018-01-21T03:21:39.615Z,100.00
2018-01-21T03:22:44.655Z,100.00
2018-01-21T03:23:49.373Z,100.00
2018-01-21T03:24:54.076Z,100.00
2018-01-21T03:25:58.820Z,100.00
2018-01-21T03:27:03.534Z,100.00
2018-01-21T03:28:08.268Z,100.00
2018-01-21T03:29:13.288Z,100.00
2018-01-21T03:30:18.055Z,100.00
2018-01-21T03:31:23.047Z,100.00
2018-01-21T03:32:27.916Z,100.00
2018-01-21T03:33:32.660Z,100.00
2018-01-21T03:34:37.405Z,100.00
2018-01-21T03:35:42.469Z,100.00
2018-01-21T03:36:47.217Z,100.00
2018-01-21T03:37:51.920Z,100.00
2018-01-21T03:38:56.603Z,100.00
2018-01-21T03:40:01.321Z,100.00
2018-01-21T03:41:05.990Z,100.00
2018-01-21T03:42:11.057Z,100.00
2018-01-21T03:43:15.779Z,100.00
2018-01-21T03:44:20.451Z,100.00
2018-01-21T03:45:25.247Z,100.00
2018-01-21T03:46:29.950Z,100.00
2018-01-21T03:47:34.582Z,100.00
2018-01-21T03:48:39.489Z,100.00
2018-01-21T03:49:44.145Z,100.00
2018-01-21T03:50:48.803Z,100.00
2018-01-21T03:51:53.444Z,100.00
2018-01-21T03:52:58.124Z,100.00
2018-01-21T03:54:02.808Z,100.00
2018-01-21T03:55:07.721Z,100.00
2018-01-21T03:56:13.168Z,100.00
2018-01-21T03:57:17.797Z,100.00
2018-01-21T03:58:22.475Z,100.00
2018-01-21T03:59:27.210Z,100.00
2018-01-21T04:00:31.943Z,100.00
2018-01-21T04:01:36.937Z,100.00
2018-01-21T04:02:41.634Z,100.00
2018-01-21T04:03:46.340Z,100.00
2018-01-21T04:04:51.092Z,100.00
2018-01-21T04:05:55.821Z,100.00
2018-01-21T04:07:00.560Z,100.00
2018-01-21T04:08:05.550Z,100.00
2018-01-21T04:09:10.266Z,100.00
2018-01-21T04:10:15.038Z,100.00
2018-01-21T04:11:19.754Z,100.00
2018-01-21T04:12:24.457Z,100.00
2018-01-21T04:13:29.201Z,100.00
2018-01-21T04:14:34.209Z,100.00
2018-01-21T04:15:38.869Z,100.00
2018-01-21T04:16:43.505Z,100.00
2018-01-21T04:17:48.123Z,100.00
2018-01-21T04:18:52.763Z,100.00
2018-01-21T04:19:57.384Z,100.00
2018-01-21T04:21:02.310Z,100.00
2018-01-21T04:22:06.947Z,100.00
2018-01-21T04:23:11.664Z,100.00
2018-01-21T04:24:16.312Z,100.00
2018-01-21T04:25:20.953Z,100.00
2018-01-21T04:26:25.605Z,100.00
2018-01-21T04:27:30.533Z,100.00
2018-01-21T04:28:35.174Z,100.00
2018-01-21T04:29:39.798Z,100.00
2018-01-21T04:30:44.450Z,100.00
2018-01-21T04:31:50.192Z,100.00
2018-01-21T04:32:54.880Z,100.00
2018-01-21T04:33:59.793Z,100.00
2018-01-21T04:35:04.436Z,100.00
2018-01-21T04:36:09.095Z,100.00
2018-01-21T04:37:13.732Z,100.00
2018-01-21T04:38:18.583Z,100.00
2018-01-21T04:39:23.249Z,100.00
2018-01-21T04:40:28.195Z,100.00
2018-01-21T04:41:33.023Z,100.00
2018-01-21T04:42:37.717Z,100.00
2018-01-21T04:43:42.457Z,100.00
2018-01-21T04:44:47.178Z,100.00
2018-01-21T04:45:51.864Z,100.00
2018-01-21T04:47:06.828Z,100.00
2018-01-21T04:48:11.524Z,100.00
2018-01-21T04:49:16.187Z,100.00
2018-01-21T04:50:20.833Z,100.00
2018-01-21T04:51:25.482Z,100.00
2018-01-21T04:52:30.159Z,100.00
2018-01-21T04:53:35.059Z,100.00
2018-01-21T04:54:39.477Z,100.00
2018-01-21T04:55:43.935Z,100.00
2018-01-21T04:56:48.483Z,100.00
2018-01-21T04:57:53.055Z,100.00
2018-01-21T04:58:57.742Z,100.00
2018-01-21T05:00:02.781Z,100.00
2018-01-21T05:01:07.468Z,100.00
2018-01-21T05:02:12.112Z,100.00
2018-01-21T05:03:16.701Z,100.00
2018-01-21T05:04:21.432Z,100.00
2018-01-21T05:05:26.173Z,100.00
2018-01-21T05:06:31.197Z,100.00
2018-01-21T05:07:35.881Z,100.00
2018-01-21T05:08:40.691Z,100.00
2018-01-21T05:09:45.465Z,100.00
2018-01-21T05:10:50.110Z,100.00
2018-01-21T05:11:54.768Z,100.00
2018-01-21T05:12:59.482Z,100.00
2018-01-21T05:14:04.206Z,100.00
2018-01-21T05:15:08.896Z,100.00
2018-01-21T05:16:13.571Z,100.00
2018-01-21T05:17:18.234Z,100.00
2018-01-21T05:18:22.874Z,100.00
2018-01-21T05:19:27.895Z,100.00
2018-01-21T05:20:32.640Z,100.00
2018-01-21T05:21:37.324Z,100.00
2018-01-21T05:22:42.082Z,100.00
2018-01-21T05:23:46.849Z,100.00
2018-01-21T05:24:51.590Z,100.00
2018-01-21T05:25:56.600Z,100.00
2018-01-21T05:27:01.313Z,100.00
2018-01-21T05:28:06.020Z,100.00
2018-01-21T05:29:10.785Z,100.00
2018-01-21T05:30:15.493Z,100.00
2018-01-21T05:31:20.239Z,100.00
2018-01-21T05:32:25.249Z,100.00
2018-01-21T05:33:29.982Z,100.00
2018-01-21T05:34:34.635Z,100.00
2018-01-21T05:35:39.401Z,100.00
2018-01-21T05:36:44.132Z,100.00
2018-01-21T05:37:48.898Z,100.00
2018-01-21T05:38:53.872Z,100.00
2018-01-21T05:39:58.621Z,100.00
2018-01-21T05:41:03.486Z,100.00
2018-01-21T05:42:08.230Z,100.00
2018-01-21T05:43:12.928Z,100.00
2018-01-21T05:44:17.701Z,100.00
2018-01-21T05:45:22.736Z,100.00
2018-01-21T05:46:27.402Z,100.00
2018-01-21T05:47:32.157Z,100.00
2018-01-21T05:48:36.938Z,100.00
2018-01-21T05:49:41.680Z,100.00
2018-01-21T05:50:46.390Z,100.00
2018-01-21T05:51:51.349Z,100.00
2018-01-21T05:52:55.954Z,100.00
2018-01-21T05:54:00.529Z,100.00
2018-01-21T05:55:05.076Z,100.00
2018-01-21T05:56:09.613Z,100.00
2018-01-21T05:57:14.210Z,100.00
2018-01-21T05:58:19.117Z,100.00
2018-01-21T05:59:23.671Z,100.00
2018-01-21T06:00:28.237Z,100.00
2018-01-21T06:01:32.783Z,100.00
2018-01-21T06:02:37.291Z,100.00
2018-01-21T06:03:41.862Z,100.00
2018-01-21T06:04:46.684Z,100.00
2018-01-21T06:05:51.236Z,100.00
2018-01-21T06:06:55.785Z,100.00
2018-01-21T06:08:00.342Z,100.00
2018-01-21T06:09:05.534Z,100.00
2018-01-21T06:10:10.089Z,100.00
2018-01-21T06:11:14.835Z,100.00
2018-01-21T06:12:19.337Z,100.00
2018-01-21T06:13:23.813Z,100.00
2018-01-21T06:14:28.287Z,100.00
2018-01-21T06:15:32.782Z,100.00
2018-01-21T06:16:37.241Z,100.00
2018-01-21T06:17:41.997Z,100.00
2018-01-21T06:18:46.462Z,100.00
2018-01-21T06:19:51.247Z,100.00
2018-01-21T06:20:56.746Z,100.00
2018-01-21T06:22:01.372Z,100.00
2018-01-21T06:23:05.868Z,100.00
2018-01-21T06:24:10.645Z,100.00
2018-01-21T06:25:15.126Z,100.00
2018-01-21T06:26:19.613Z,100.00
2018-01-21T06:27:24.221Z,100.00
2018-01-21T06:28:28.946Z,100.00
2018-01-21T06:29:33.624Z,100.00
2018-01-21T06:30:38.567Z,100.00
2018-01-21T06:31:43.076Z,100.00
2018-01-21T06:32:47.780Z,100.00
2018-01-21T06:33:52.317Z,100.00
2018-01-21T06:34:56.736Z,100.00
2018-01-21T06:36:01.289Z,100.00
2018-01-21T06:37:06.165Z,100.00
2018-01-21T06:38:10.683Z,100.00
2018-01-21T06:39:15.231Z,100.00
2018-01-21T06:40:19.800Z,100.00
2018-01-21T06:41:24.312Z,100.00
2018-01-21T06:42:28.859Z,100.00
2018-01-21T06:43:33.780Z,100.00
2018-01-21T06:44:38.513Z,100.00
2018-01-21T06:45:44.168Z,100.00
2018-01-21T06:46:48.886Z,100.00
2018-01-21T06:47:53.609Z,100.00
2018-01-21T06:48:58.334Z,100.00
2018-01-21T06:50:03.440Z,100.00
2018-01-21T06:51:08.129Z,100.00
2018-01-21T06:52:12.884Z,100.00
2018-01-21T06:53:17.567Z,100.00
2018-01-21T06:54:22.178Z,100.00
2018-01-21T06:55:26.880Z,100.00
2018-01-21T06:56:31.865Z,100.00
2018-01-21T06:57:36.605Z,100.00
2018-01-21T06:58:41.353Z,100.00
2018-01-21T06:59:45.963Z,100.00
2018-01-21T07:00:50.564Z,100.00
2018-01-21T07:01:55.212Z,100.00
2018-01-21T07:03:00.124Z,100.00
2018-01-21T07:04:04.832Z,100.00
2018-01-21T07:05:09.480Z,100.00
2018-01-21T07:06:14.109Z,100.00
2018-01-21T07:07:18.722Z,100.00
2018-01-21T07:08:23.366Z,100.00
2018-01-21T07:09:28.273Z,100.00
2018-01-21T07:10:32.919Z,100.00
2018-01-21T07:11:37.596Z,100.00
2018-01-21T07:12:42.901Z,100.00
2018-01-21T07:13:47.526Z,100.00
2018-01-21T07:14:52.158Z,100.00
2018-01-21T07:15:57.118Z,100.00
2018-01-21T07:17:01.871Z,100.00
2018-01-21T07:18:06.565Z,100.00
2018-01-21T07:19:11.388Z,100.00
2018-01-21T07:20:16.120Z,100.00
2018-01-21T07:21:22.903Z,100.00
2018-01-21T07:22:27.930Z,100.00
2018-01-21T07:23:32.633Z,100.00
2018-01-21T07:24:37.350Z,100.00
2018-01-21T07:25:42.074Z,100.00
2018-01-21T07:26:46.792Z,100.00
2018-01-21T07:27:51.629Z,100.00
2018-01-21T07:28:56.595Z,100.00
2018-01-21T07:30:01.311Z,100.00
2018-01-21T07:31:06.048Z,100.00
2018-01-21T07:32:10.834Z,100.00
2018-01-21T07:33:15.474Z,100.00
2018-01-21T07:34:20.176Z,100.00
2018-01-21T07:35:24.866Z,100.00
2018-01-21T07:36:29.509Z,100.00
2018-01-21T07:37:34.127Z,100.00
2018-01-21T07:38:38.759Z,100.00
2018-01-21T07:39:43.525Z,100.00
2018-01-21T07:40:48.557Z,100.00
2018-01-21T07:41:53.288Z,100.00
2018-01-21T07:42:58.015Z,100.00
2018-01-21T07:44:02.768Z,100.00
2018-01-21T07:45:07.458Z,100.00
2018-01-21T07:46:12.184Z,100.00
2018-01-21T07:47:17.200Z,100.00
2018-01-21T07:48:21.910Z,100.00
2018-01-21T07:49:26.685Z,100.00
2018-01-21T07:50:31.444Z,100.00
2018-01-21T07:51:36.153Z,100.00
2018-01-21T07:52:40.796Z,100.00
2018-01-21T07:53:45.679Z,100.00
2018-01-21T07:54:50.268Z,100.00
2018-01-21T07:55:54.908Z,100.00
2018-01-21T07:56:59.496Z,100.00
2018-01-21T07:58:04.121Z,100.00
2018-01-21T07:59:08.764Z,100.00
2018-01-21T08:00:13.685Z,100.00
2018-01-21T08:01:18.325Z,100.00
2018-01-21T08:02:23.007Z,100.00
2018-01-21T08:03:27.680Z,100.00
2018-01-21T08:04:32.344Z,100.00
2018-01-21T08:05:37.001Z,100.00
2018-01-21T08:06:42.034Z,100.00
2018-01-21T08:07:46.697Z,100.00
2018-01-21T08:08:51.346Z,100.00
2018-01-21T08:09:56.009Z,100.00
2018-01-21T08:11:00.640Z,100.00
2018-01-21T08:12:05.351Z,100.00
2018-01-21T08:13:10.280Z,100.00
2018-01-21T08:14:14.913Z,100.00
2018-01-21T08:15:19.603Z,100.00
2018-01-21T08:16:24.236Z,100.00
2018-01-21T08:17:28.893Z,100.00
2018-01-21T08:18:33.484Z,100.00
2018-01-21T08:19:38.370Z,100.00
2018-01-21T08:20:42.971Z,100.00
2018-01-21T08:21:47.631Z,100.00
2018-01-21T08:22:52.254Z,100.00
2018-01-21T08:23:56.899Z,100.00
2018-01-21T08:25:01.576Z,100.00
2018-01-21T08:26:06.568Z,100.00
2018-01-21T08:27:11.142Z,100.00
2018-01-21T08:28:15.799Z,100.00
2018-01-21T08:29:20.464Z,100.00
2018-01-21T08:30:25.009Z,100.00
2018-01-21T08:31:29.713Z,100.00
2018-01-21T08:32:34.667Z,100.00
2018-01-21T08:33:40.221Z,100.00
2018-01-21T08:34:49.344Z,100.00
2018-01-21T08:38:00.395Z,100.00
2018-01-21T08:41:13.526Z,100.00
2018-01-21T08:42:22.337Z,100.00
2018-01-21T08:43:27.201Z,100.00
2018-01-21T08:44:32.244Z,100.00
2018-01-21T08:45:37.001Z,100.00
2018-01-21T08:46:41.768Z,100.00
2018-01-21T08:47:46.506Z,100.00
2018-01-21T08:48:51.272Z,100.00
2018-01-21T08:49:56.044Z,100.00
2018-01-21T08:51:01.274Z,100.00
2018-01-21T08:52:06.068Z,100.00
2018-01-21T08:53:10.880Z,100.00
2018-01-21T08:54:15.563Z,100.00
2018-01-21T08:55:20.161Z,100.00
2018-01-21T08:56:24.905Z,100.00
2018-01-21T08:57:30.028Z,100.00
2018-01-21T08:58:34.625Z,100.00
2018-01-21T08:59:39.212Z,100.00
2018-01-21T09:00:43.844Z,100.00
2018-01-21T09:01:48.475Z,100.00
2018-01-21T09:02:53.053Z,100.00
2018-01-21T09:03:57.958Z,100.00
2018-01-21T09:05:02.767Z,100.00
2018-01-21T09:06:07.535Z,100.00
2018-01-21T09:07:12.225Z,100.00
2018-01-21T09:08:16.917Z,100.00
2018-01-21T09:09:21.589Z,100.00
2018-01-21T09:10:26.348Z,100.00
2018-01-21T09:11:31.056Z,100.00
2018-01-21T09:12:35.696Z,100.00
2018-01-21T09:13:40.302Z,100.00
2018-01-21T09:14:45.679Z,100.00
2018-01-21T09:15:50.370Z,100.00
2018-01-21T09:16:55.289Z,100.00
2018-01-21T09:17:59.935Z,100.00
2018-01-21T09:19:04.543Z,100.00
2018-01-21T09:20:09.192Z,100.00
2018-01-21T09:21:13.900Z,100.00
2018-01-21T09:22:18.586Z,100.00
2018-01-21T09:23:23.612Z,100.00
2018-01-21T09:24:28.306Z,100.00
2018-01-21T09:25:32.917Z,100.00
2018-01-21T09:26:37.472Z,100.00
2018-01-21T09:27:42.154Z,100.00
2018-01-21T09:28:46.715Z,100.00
2018-01-21T09:29:51.629Z,100.00
2018-01-21T09:30:56.350Z,100.00
2018-01-21T09:32:00.906Z,100.00
2018-01-21T09:33:05.621Z,100.00
2018-01-21T09:34:10.322Z,100.00
2018-01-21T09:35:15.081Z,100.00
2018-01-21T09:36:20.275Z,100.00
2018-01-21T09:37:25.145Z,100.00
2018-01-21T09:38:29.886Z,100.00
2018-01-21T09:39:34.664Z,100.00
2018-01-21T09:40:39.371Z,100.00
2018-01-21T09:41:44.004Z,100.00
2018-01-21T09:42:49.087Z,100.00
2018-01-21T09:43:53.956Z,100.00
2018-01-21T09:44:58.710Z,100.00
2018-01-21T09:46:03.421Z,100.00
2018-01-21T09:47:08.538Z,100.00
2018-01-21T09:48:13.382Z,100.00
2018-01-21T09:49:18.516Z,100.00
2018-01-21T09:50:23.248Z,100.00
2018-01-21T09:51:28.000Z,100.00
2018-01-21T09:52:32.785Z,100.00
2018-01-21T09:53:37.759Z,100.00
2018-01-21T09:54:42.586Z,100.00
2018-01-21T09:55:47.630Z,100.00
2018-01-21T09:56:52.441Z,100.00
2018-01-21T09:57:57.367Z,100.00
2018-01-21T09:59:02.532Z,100.00
2018-01-21T10:00:07.375Z,100.00
2018-01-21T10:01:12.292Z,100.00
2018-01-21T10:02:17.830Z,100.00
2018-01-21T10:03:22.652Z,100.00
2018-01-21T10:04:28.883Z,100.00
2018-01-21T10:05:33.664Z,100.00
2018-01-21T10:06:40.182Z,100.00
2018-01-21T10:07:45.439Z,100.00
2018-01-21T10:08:51.448Z,100.00
2018-01-21T10:09:57.637Z,100.00
2018-01-21T10:11:02.791Z,100.00
2018-01-21T10:12:09.736Z,100.00
2018-01-21T10:13:15.161Z,100.00
2018-01-21T10:14:20.512Z,100.00
2018-01-21T10:15:25.585Z,100.00
2018-01-21T10:16:32.775Z,100.00
2018-01-21T10:17:38.730Z,100.00
2018-01-21T10:18:47.663Z,100.00
2018-01-21T10:19:55.509Z,99.93
2018-01-21T10:21:02.170Z,99.88
2018-01-21T10:22:07.690Z,99.83
2018-01-21T10:23:13.494Z,99.80
2018-01-21T10:24:21.823Z,99.73
2018-01-21T10:25:28.449Z,99.68
2018-01-21T10:26:34.291Z,99.54
2018-01-21T10:27:39.987Z,99.47
2018-01-21T10:28:47.058Z,99.44
2018-01-21T10:29:53.617Z,99.49
2018-01-21T10:30:59.233Z,99.51
2018-01-21T10:32:04.491Z,99.55
2018-01-21T10:33:11.214Z,99.53
2018-01-21T10:34:18.866Z,99.50
2018-01-21T10:35:27.066Z,99.53
2018-01-21T10:36:33.561Z,99.56
2018-01-21T10:37:41.160Z,99.52
2018-01-21T10:38:48.759Z,99.48
2018-01-21T10:39:56.925Z,99.38
2018-01-21T10:41:05.531Z,99.36
2018-01-21T10:42:13.965Z,99.31
2018-01-21T10:43:21.874Z,99.37
2018-01-21T10:44:29.792Z,99.43
2018-01-21T10:45:36.605Z,99.51
2018-01-21T10:46:43.494Z,99.55
2018-01-21T10:47:51.676Z,99.54
2018-01-21T10:49:01.239Z,99.56
2018-01-21T10:50:08.875Z,99.63
2018-01-21T10:51:16.677Z,99.85
2018-01-21T10:52:22.438Z,99.41
2018-01-21T10:53:30.077Z,98.90
2018-01-21T10:54:37.560Z,98.71
2018-01-21T10:55:42.954Z,98.81
2018-01-21T10:56:50.880Z,98.82
2018-01-21T10:57:57.691Z,98.88
2018-01-21T10:59:06.855Z,98.84
2018-01-21T11:00:13.551Z,98.79
2018-01-21T11:01:21.160Z,98.87
2018-01-21T11:02:30.045Z,99.03
2018-01-21T11:03:37.455Z,99.09
2018-01-21T11:04:44.076Z,99.12
2018-01-21T11:05:50.241Z,99.23
2018-01-21T11:06:57.939Z,99.23
2018-01-21T11:08:06.465Z,99.26
2018-01-21T11:09:14.455Z,99.26
2018-01-21T11:10:23.766Z,99.19
2018-01-21T11:11:31.773Z,99.06
2018-01-21T11:12:40.684Z,99.07
2018-01-21T11:13:48.600Z,98.87
2018-01-21T11:14:56.337Z,98.84
2018-01-21T11:16:04.366Z,98.62
2018-01-21T11:17:12.645Z,98.35
2018-01-21T11:18:20.306Z,98.09
2018-01-21T11:19:27.403Z,97.64
2018-01-21T11:20:34.958Z,97.34
2018-01-21T11:21:43.727Z,97.05
2018-01-21T11:22:50.639Z,96.88
2018-01-21T11:23:56.193Z,96.53
2018-01-21T11:25:03.237Z,96.19
2018-01-21T11:26:11.075Z,96.03
2018-01-21T11:27:18.709Z,96.07
2018-01-21T11:28:29.171Z,95.80
2018-01-21T11:29:38.384Z,95.77
2018-01-21T11:30:46.893Z,95.59
2018-01-21T11:31:54.643Z,95.57
2018-01-21T11:33:00.490Z,95.57
2018-01-21T11:34:10.774Z,95.54
2018-01-21T11:35:20.007Z,95.59
2018-01-21T11:36:28.669Z,95.57
2018-01-21T11:37:39.653Z,95.68
2018-01-21T11:38:49.816Z,95.85
2018-01-21T11:39:59.799Z,95.82
2018-01-21T11:41:05.636Z,95.73
2018-01-21T11:42:13.671Z,95.67
2018-01-21T11:43:21.606Z,95.61
2018-01-21T11:44:29.589Z,95.62
2018-01-21T11:45:38.032Z,95.47
2018-01-21T11:46:46.244Z,95.42
2018-01-21T11:47:54.839Z,95.40
2018-01-21T11:49:02.844Z,95.45
2018-01-21T11:50:10.401Z,95.59
2018-01-21T11:51:20.454Z,95.72
2018-01-21T11:52:29.786Z,95.77
2018-01-21T11:53:38.586Z,95.77
2018-01-21T11:54:52.220Z,95.76
2018-01-21T11:56:02.059Z,95.77
2018-01-21T11:57:09.437Z,95.81
2018-01-21T11:58:22.887Z,95.76
2018-01-21T11:59:32.636Z,96.00
2018-01-21T12:00:41.984Z,95.58
2018-01-21T12:01:52.904Z,94.86
2018-01-21T12:03:02.455Z,94.39
2018-01-21T12:04:11.309Z,94.33
2018-01-21T12:05:20.016Z,94.63
2018-01-21T12:06:28.778Z,94.83
2018-01-21T12:07:36.965Z,94.95
2018-01-21T12:08:48.086Z,95.06
2018-01-21T12:09:57.880Z,95.25
2018-01-21T12:11:08.707Z,95.34
2018-01-21T12:12:17.481Z,95.45
2018-01-21T12:13:32.479Z,95.38
2018-01-21T12:14:42.391Z,95.45
2018-01-21T12:15:53.133Z,95.44
2018-01-21T12:17:04.542Z,95.52
2018-01-21T12:18:13.038Z,95.65
2018-01-21T12:19:20.158Z,95.79
2018-01-21T12:20:31.118Z,95.88
2018-01-21T12:21:43.045Z,95.92
2018-01-21T12:22:53.404Z,95.81
2018-01-21T12:24:05.277Z,95.81
2018-01-21T12:25:15.131Z,95.81
2018-01-21T12:26:21.537Z,95.79
2018-01-21T12:27:30.214Z,95.86
2018-01-21T12:28:40.684Z,95.97
2018-01-21T12:29:53.921Z,95.96
2018-01-21T12:31:03.176Z,95.95
2018-01-21T12:32:14.610Z,96.02
2018-01-21T12:33:22.683Z,96.04
2018-01-21T12:34:31.450Z,96.08
2018-01-21T12:35:40.734Z,96.19
2018-01-21T12:36:52.124Z,96.19
2018-01-21T12:38:01.446Z,96.33
2018-01-21T12:39:12.619Z,96.42
2018-01-21T12:40:24.967Z,96.49
2018-01-21T12:41:35.014Z,96.60
2018-01-21T12:42:44.797Z,96.68
2018-01-21T12:43:54.814Z,96.71
2018-01-21T12:45:06.062Z,96.74
2018-01-21T12:46:15.988Z,96.86
2018-01-21T12:47:27.231Z,96.99
2018-01-21T12:48:35.313Z,96.94
2018-01-21T12:49:43.994Z,97.00
2018-01-21T12:50:58.123Z,97.05
2018-01-21T12:52:08.348Z,97.16
2018-01-21T12:53:18.730Z,97.26
2018-01-21T12:54:31.502Z,97.38
2018-01-21T12:55:47.532Z,97.38
2018-01-21T12:56:58.940Z,97.33
2018-01-21T12:58:07.605Z,97.31
2018-01-21T12:59:17.851Z,97.27
2018-01-21T13:00:30.142Z,97.24
2018-01-21T13:01:38.625Z,97.18
2018-01-21T13:02:48.945Z,97.23
2018-01-21T13:04:00.827Z,97.23
2018-01-21T13:05:11.510Z,97.26
2018-01-21T13:06:21.592Z,97.32
2018-01-21T13:07:35.842Z,97.34
2018-01-21T13:08:46.684Z,97.30
2018-01-21T13:09:57.658Z,97.26
2018-01-21T13:11:07.920Z,97.31
2018-01-21T13:12:16.465Z,97.22
2018-01-21T13:13:27.404Z,97.22
2018-01-21T13:14:35.983Z,97.21
2018-01-21T13:15:44.237Z,97.22
2018-01-21T13:16:54.080Z,97.22
2018-01-21T13:18:07.946Z,97.31
2018-01-21T13:19:19.585Z,97.33
2018-01-21T13:20:30.888Z,97.42
2018-01-21T13:21:41.437Z,97.35
2018-01-21T13:22:49.867Z,97.27
2018-01-21T13:24:04.880Z,97.20
2018-01-21T13:25:13.923Z,97.18
2018-01-21T13:26:23.538Z,97.17
2018-01-21T13:27:32.308Z,97.16
2018-01-21T13:28:44.905Z,97.17
2018-01-21T13:29:53.575Z,97.15
2018-01-21T13:31:06.384Z,97.18
2018-01-21T13:32:25.078Z,97.23
2018-01-21T13:33:33.667Z,97.19
2018-01-21T13:34:44.274Z,97.17
2018-01-21T13:35:51.856Z,97.17
2018-01-21T13:37:03.242Z,97.18
2018-01-21T13:38:13.125Z,97.21
2018-01-21T13:39:23.928Z,97.25
2018-01-21T13:40:34.322Z,97.22
2018-01-21T13:41:43.110Z,97.27
2018-01-21T13:42:52.119Z,97.28
2018-01-21T13:44:04.809Z,97.24
2018-01-21T13:45:14.121Z,97.30
2018-01-21T13:46:23.313Z,97.38
2018-01-21T13:47:32.142Z,97.38
2018-01-21T13:48:40.584Z,97.36
2018-01-21T13:49:50.800Z,97.40
2018-01-21T13:50:58.592Z,97.38
2018-01-21T13:52:07.609Z,97.36
2018-01-21T13:53:17.922Z,97.32